TFM - Tactical Decision Aid (Experimental) INFO Settings

ID: Runway Winds: CIG/VIS Threshold: METAR Board: Map:

KDFW - Dallas/Fort Worth Intl

Updated at: 1419 UTC 02 Aug 2015
Latest TAF at: 1126 UTC 02 Aug 2015

TAF Board

Time1353Z02/15Z02/16Z02/17Z02/18Z02/19Z02/20Z02/21Z02/22Z02/23Z03/00Z03/01Z03/02Z03/03Z
TypeOBSPRVLPRVLPRVLPRVLPRVLPRVLPRVLPRVLPRVLPRVLPRVLPRVLPRVL
VIS10>6>6>6>6>6>6>6>6>6>6>6>6>6
CIG110110110110110110----------------
CoverBKNBKNBKNBKNBKNBKNSCTSCTSCTSCTSCTSCTSCTSCT
FltCatVFRVFRVFRVFRVFRVFRVFRVFRVFRVFRVFRVFRVFRVFR
WX----------------------------
WDir180150150150150150120120120120120120120120
WSpd77777755555555
WGst----------------------------
TAF
KDFW 021126Z 0212/0318 15007KT P6SM BKN110
  FM022000 12005KT P6SM SCT120 SCT300


METAR
KDFW 021353Z 18007KT 10SM BKN110 BKN300 29/15 A2998 RMK AO2 SLP140 T02890150
KDFW 021253Z 14006KT 10SM FEW100 SCT210 BKN300 28/16 A2996 RMK AO2 SLP134 T02780156

TAF/METAR Board Legend

Potential Impact
  None Marginal Slight Moderate High
Visibility (sm) >5 3≤X≤5 1≤X<3 0.5≤X<1 <0.5
Ceiling (100 ft) >30 10≤X≤30 4≤X<10 2≤X<4 <2
Wind Speed (kt) <10 10≤X<20 20≤X<30 ≥30
Wind Gust (kt) <15 15≤X<25 25≤X<35 ≥35
Weather No Wx Reported VCTS -TS,-FZRA TS,FZRA +TS,+FZRA